Time;durP1;ratioP1;P1;durP2;ratioP2;P2;SDS_P1;SDS_P2;PMS_P1;PMS_P2;Temp;Humidity;BMP_temperature;BMP_pressure;BME280_temperature;BME280_humidity;BME280_pressure;Samples;Min_cycle;Max_cycle;Signal;HPM_P1;HPM_P2
2022/07/10 00:00:42;;;;;;;5.88;1.10;;;15.60;99.90;;;;;;6246781;28;20045;-74
2022/07/10 00:03:44;;;;;;;7.22;1.52;;;15.60;99.90;;;;;;6278369;28;20049;-73
2022/07/10 00:06:47;;;;;;;6.70;1.50;;;15.60;99.90;;;;;;6246423;28;20076;-73
2022/07/10 00:09:49;;;;;;;8.07;1.43;;;15.70;99.90;;;;;;6278492;28;20139;-73
2022/07/10 00:12:53;;;;;;;5.57;1.27;;;15.80;99.90;;;;;;6246485;28;20418;-74
2022/07/10 00:15:54;;;;;;;8.77;1.10;;;15.80;99.90;;;;;;6278432;28;20069;-74
2022/07/10 00:18:56;;;;;;;9.30;1.58;;;15.70;99.90;;;;;;6278294;28;20505;-74
2022/07/10 00:21:58;;;;;;;8.35;1.52;;;15.60;99.90;;;;;;6246170;28;20064;-74
2022/07/10 00:25:00;;;;;;;9.02;1.30;;;15.40;99.90;;;;;;6278399;28;20049;-73
2022/07/10 00:28:04;;;;;;;5.93;1.33;;;15.40;99.90;;;;;;6245959;28;20053;-74
2022/07/10 00:31:06;;;;;;;8.02;1.42;;;15.30;99.90;;;;;;6247567;28;20486;-74
2022/07/10 00:34:08;;;;;;;9.68;1.95;;;15.30;99.90;;;;;;6251063;28;20041;-73
2022/07/10 00:37:10;;;;;;;12.20;2.50;;;15.30;99.90;;;;;;6250684;28;20060;-73
2022/07/10 00:40:12;;;;;;;6.13;1.33;;;15.30;99.90;;;;;;6282311;28;20054;-73
2022/07/10 00:43:16;;;;;;;9.88;1.60;;;15.40;99.90;;;;;;6282339;28;20271;-73
2022/07/10 00:46:20;;;;;;;10.70;1.80;;;15.30;99.90;;;;;;6282630;28;20057;-73
2022/07/10 00:49:22;;;;;;;5.60;1.30;;;15.40;99.90;;;;;;6249884;28;20207;-74
2022/07/10 00:52:24;;;;;;;7.10;1.30;;;15.30;99.90;;;;;;6250010;28;20402;-73
2022/07/10 00:55:26;;;;;;;6.20;1.05;;;15.20;99.90;;;;;;6250206;28;20510;-74
2022/07/10 00:58:30;;;;;;;6.82;1.20;;;15.00;99.90;;;;;;6250243;28;20053;-73
2022/07/10 01:01:33;;;;;;;9.20;1.73;;;14.80;99.90;;;;;;6249857;28;20055;-73
2022/07/10 01:04:35;;;;;;;;;;;14.80;99.90;;;;;;6250271;28;20060;-73
2022/07/10 01:07:37;;;;;;;7.22;1.20;;;14.60;99.90;;;;;;6249813;28;19928;-73
2022/07/10 01:10:40;;;;;;;5.75;1.40;;;14.60;99.90;;;;;;6249632;28;20128;-74
2022/07/10 01:13:44;;;;;;;9.25;2.00;;;14.60;99.90;;;;;;6282027;28;20487;-73
2022/07/10 01:16:46;;;;;;;11.75;1.67;;;14.60;99.90;;;;;;6249475;28;20490;-73
2022/07/10 01:19:48;;;;;;;5.45;1.10;;;14.50;99.90;;;;;;6249296;28;20104;-74
2022/07/10 01:22:51;;;;;;;9.55;1.38;;;14.70;99.90;;;;;;6281737;28;20162;-73
2022/07/10 01:25:53;;;;;;;8.52;1.40;;;14.80;99.90;;;;;;6249230;28;20414;-73
2022/07/10 01:28:55;;;;;;;5.22;1.13;;;14.90;99.90;;;;;;6249011;28;20049;-74
2022/07/10 01:31:59;;;;;;;8.25;1.38;;;14.90;99.90;;;;;;6248979;28;20052;-74
2022/07/10 01:35:01;;;;;;;10.27;1.60;;;14.90;99.90;;;;;;6281299;28;20483;-74
2022/07/10 01:38:05;;;;;;;8.10;1.80;;;14.90;99.90;;;;;;6281009;28;20061;-73
2022/07/10 01:41:08;;;;;;;10.27;1.45;;;14.90;99.90;;;;;;6280926;28;20046;-73
2022/07/10 01:44:10;;;;;;;6.38;1.17;;;15.10;99.90;;;;;;6281335;28;20100;-73
2022/07/10 01:47:12;;;;;;;6.28;1.13;;;15.10;99.90;;;;;;6248931;28;20045;-73
2022/07/10 01:50:13;;;;;;;7.47;1.10;;;15.00;99.90;;;;;;6248840;28;20060;-73
2022/07/10 01:53:17;;;;;;;6.85;1.10;;;15.00;99.90;;;;;;6280949;28;20052;-74
2022/07/10 01:56:19;;;;;;;7.43;1.15;;;14.80;99.90;;;;;;6280989;28;20417;-73
2022/07/10 01:59:21;;;;;;;7.40;1.10;;;14.70;99.90;;;;;;6280621;28;20060;-73
2022/07/10 02:02:23;;;;;;;6.13;1.20;;;14.70;99.90;;;;;;6280374;28;20045;-73
2022/07/10 02:05:23;;;;;;;8.13;1.92;;;14.70;99.90;;;;;;6248480;28;20045;-73
2022/07/10 02:08:27;;;;;;;6.28;1.30;;;14.60;99.90;;;;;;6248577;28;20053;-73
2022/07/10 02:11:29;;;;;;;5.20;1.00;;;14.60;99.90;;;;;;6280477;28;20052;-73
2022/07/10 02:14:30;;;;;;;7.07;1.45;;;14.70;99.90;;;;;;6248194;28;20048;-73
2022/07/10 02:17:32;;;;;;;8.10;1.33;;;14.70;99.90;;;;;;6247895;28;20045;-73
2022/07/10 02:20:35;;;;;;;6.80;1.20;;;14.70;99.90;;;;;;6280199;28;20053;-73
2022/07/10 02:23:40;;;;;;;9.35;1.75;;;14.70;99.90;;;;;;6279989;28;20046;-73
2022/07/10 02:26:42;;;;;;;6.25;1.30;;;14.70;99.90;;;;;;6247986;28;20053;-73
2022/07/10 02:29:44;;;;;;;9.90;1.40;;;14.70;99.90;;;;;;6247552;28;20052;-74
2022/07/10 02:32:46;;;;;;;7.93;1.73;;;14.80;99.90;;;;;;6279971;28;20049;-73
2022/07/10 02:35:48;;;;;;;8.30;1.55;;;14.90;99.90;;;;;;6247998;28;20045;-73
2022/07/10 02:38:51;;;;;;;9.00;1.60;;;14.90;99.90;;;;;;6279708;28;20052;-74
2022/07/10 02:41:53;;;;;;;8.52;1.67;;;14.80;99.90;;;;;;6279740;28;20053;-73
2022/07/10 02:44:55;;;;;;;10.85;1.40;;;15.00;99.90;;;;;;6279620;28;20056;-73
2022/07/10 02:47:56;;;;;;;9.10;2.00;;;15.20;99.90;;;;;;6247114;28;20520;-74
2022/07/10 02:50:58;;;;;;;7.63;1.08;;;15.00;99.90;;;;;;6247496;28;20046;-74
2022/07/10 02:54:02;;;;;;;7.68;1.38;;;14.80;99.90;;;;;;6278981;28;20060;-74
2022/07/10 02:57:04;;;;;;;;;;;14.70;99.90;;;;;;6248050;28;20050;-74
2022/07/10 03:00:07;;;;;;;10.55;1.95;;;14.60;99.90;;;;;;6247241;28;20341;-73
2022/07/10 03:03:09;;;;;;;7.85;1.42;;;14.70;99.90;;;;;;6262830;28;20060;-73
2022/07/10 03:06:11;;;;;;;7.50;1.30;;;15.10;99.90;;;;;;6279462;28;20072;-73
2022/07/10 03:09:14;;;;;;;9.15;1.75;;;15.30;99.90;;;;;;6248990;28;20057;-73
2022/07/10 03:12:16;;;;;;;9.07;1.73;;;15.00;99.90;;;;;;6248892;28;20072;-73
2022/07/10 03:15:18;;;;;;;8.95;2.42;;;14.90;99.90;;;;;;6246982;28;20430;-73
2022/07/10 03:18:20;;;;;;;8.75;1.70;;;14.80;99.90;;;;;;6278707;28;20054;-73
2022/07/10 03:21:22;;;;;;;8.00;1.67;;;14.80;99.90;;;;;;6247242;28;20045;-73
2022/07/10 03:24:25;;;;;;;6.72;1.70;;;15.00;99.90;;;;;;6278934;28;20049;-73
2022/07/10 03:27:28;;;;;;;10.25;1.48;;;15.00;99.90;;;;;;6246436;28;20053;-73
2022/07/10 03:30:30;;;;;;;3.35;0.80;;;15.00;99.90;;;;;;6246898;28;20054;-73
2022/07/10 03:33:31;;;;;;;10.18;1.95;;;14.90;99.90;;;;;;6246888;28;20053;-73
2022/07/10 03:36:33;;;;;;;7.57;1.38;;;14.80;99.90;;;;;;6278998;28;20057;-73
2022/07/10 03:39:37;;;;;;;14.43;1.95;;;14.80;99.90;;;;;;6246708;28;20041;-73
2022/07/10 03:42:39;;;;;;;7.03;1.35;;;14.90;99.90;;;;;;6279156;28;20057;-74
2022/07/10 03:45:41;;;;;;;7.30;1.20;;;14.80;99.90;;;;;;6278744;28;20041;-73
2022/07/10 03:48:43;;;;;;;6.90;1.13;;;14.80;99.90;;;;;;6246597;28;20046;-74
2022/07/10 03:51:45;;;;;;;6.40;1.33;;;14.80;99.90;;;;;;6278901;28;20093;-73
2022/07/10 03:54:48;;;;;;;7.63;1.80;;;14.60;99.90;;;;;;6279300;28;20057;-73
2022/07/10 03:57:56;;;;;;;9.40;1.90;;;14.60;99.90;;;;;;6278488;28;20053;-74
2022/07/10 04:00:58;;;;;;;5.60;1.52;;;14.70;99.90;;;;;;6278427;28;20169;-73
2022/07/10 04:04:00;;;;;;;8.13;1.65;;;14.60;99.90;;;;;;6246475;28;20080;-74
2022/07/10 04:07:03;;;;;;;8.82;1.83;;;14.80;99.90;;;;;;6250983;28;20413;-73
2022/07/10 04:10:09;;;;;;;7.45;1.40;;;14.80;99.90;;;;;;6251286;28;20053;-74
2022/07/10 04:13:11;;;;;;;12.95;2.38;;;15.10;99.90;;;;;;6251089;28;20084;-74
2022/07/10 04:16:13;;;;;;;8.70;2.00;;;15.20;99.90;;;;;;6282853;28;20061;-74
2022/07/10 04:19:15;;;;;;;7.75;1.83;;;15.40;99.90;;;;;;6250574;28;20521;-74
2022/07/10 04:22:17;;;;;;;6.47;1.75;;;15.50;99.90;;;;;;6250874;28;20593;-74
2022/07/10 04:25:20;;;;;;;9.77;1.85;;;15.70;99.90;;;;;;6250684;28;20046;-74
2022/07/10 04:28:22;;;;;;;11.90;2.30;;;15.60;99.90;;;;;;6250930;28;20055;-74
2022/07/10 04:31:24;;;;;;;10.65;2.25;;;15.40;99.90;;;;;;6282504;28;20053;-74
2022/07/10 04:34:26;;;;;;;8.48;1.38;;;15.30;99.90;;;;;;6283031;28;20061;-74
2022/07/10 04:37:29;;;;;;;8.30;1.77;;;15.30;99.90;;;;;;6250317;28;20065;-73
2022/07/10 04:40:32;;;;;;;10.55;1.77;;;15.20;99.90;;;;;;6250348;28;20061;-74
2022/07/10 04:43:34;;;;;;;9.13;1.50;;;15.30;99.90;;;;;;6250443;28;20053;-74
2022/07/10 04:46:36;;;;;;;11.20;1.70;;;15.40;99.90;;;;;;6282362;28;20054;-74
2022/07/10 04:49:37;;;;;;;8.20;1.35;;;15.40;99.90;;;;;;6250123;28;20049;-73
2022/07/10 04:52:39;;;;;;;12.82;1.83;;;15.30;99.90;;;;;;6250372;28;20046;-73
2022/07/10 04:55:43;;;;;;;17.52;2.50;;;15.30;99.90;;;;;;6282541;28;20062;-74
2022/07/10 04:58:45;;;;;;;6.95;1.65;;;15.40;99.90;;;;;;6250207;28;20049;-74
2022/07/10 05:01:47;;;;;;;8.85;1.58;;;15.30;99.90;;;;;;6249790;28;20056;-73
2022/07/10 05:04:48;;;;;;;8.50;1.90;;;15.30;99.90;;;;;;6249978;28;20388;-74
2022/07/10 05:07:50;;;;;;;7.75;1.52;;;15.40;99.90;;;;;;6248961;28;20056;-74
2022/07/10 05:10:54;;;;;;;13.02;2.15;;;15.50;99.90;;;;;;6249839;28;20061;-73
2022/07/10 05:13:56;;;;;;;6.32;1.30;;;15.60;99.90;;;;;;6282260;28;20053;-73
2022/07/10 05:16:58;;;;;;;8.02;1.30;;;15.50;99.90;;;;;;6281093;28;20053;-74
2022/07/10 05:20:00;;;;;;;11.23;1.73;;;15.60;99.90;;;;;;6281554;28;20072;-73
2022/07/10 05:23:02;;;;;;;9.30;1.75;;;15.60;99.90;;;;;;6249741;28;20045;-74
2022/07/10 05:26:05;;;;;;;11.52;1.63;;;15.60;99.90;;;;;;6281617;28;20064;-74
2022/07/10 05:29:07;;;;;;;5.40;1.10;;;15.50;99.90;;;;;;6249016;28;20061;-74
2022/07/10 05:32:09;;;;;;;10.45;1.80;;;15.70;99.90;;;;;;6249309;28;20064;-74
2022/07/10 05:35:11;;;;;;;7.95;1.48;;;16.00;99.90;;;;;;6249443;28;20056;-74
2022/07/10 05:38:13;;;;;;;9.95;2.13;;;15.90;99.90;;;;;;6264360;28;20049;-74
2022/07/10 05:41:17;;;;;;;10.65;2.70;;;15.90;99.90;;;;;;6264525;28;20049;-73
2022/07/10 05:44:19;;;;;;;13.35;2.10;;;16.10;99.90;;;;;;6264439;28;20049;-73
2022/07/10 05:47:21;;;;;;;9.40;2.53;;;16.10;99.90;;;;;;6248848;28;20045;-74
2022/07/10 05:50:23;;;;;;;10.52;2.47;;;16.00;99.90;;;;;;6249002;28;20049;-73
2022/07/10 05:53:25;;;;;;;9.00;1.90;;;15.90;99.90;;;;;;6264458;28;20084;-74
2022/07/10 05:56:29;;;;;;;6.35;1.45;;;16.00;99.90;;;;;;6264360;28;20053;-73
2022/07/10 05:59:34;;;;;;;11.98;1.90;;;16.00;99.90;;;;;;6263801;28;20054;-73
2022/07/10 06:02:36;;;;;;;7.65;1.13;;;16.10;99.90;;;;;;6263958;28;20049;-73
2022/07/10 06:05:38;;;;;;;10.60;1.98;;;16.20;99.90;;;;;;6248420;28;20049;-73
2022/07/10 06:08:40;;;;;;;9.25;1.52;;;16.00;99.90;;;;;;6263621;28;20050;-73
2022/07/10 06:11:45;;;;;;;10.02;2.10;;;15.90;99.90;;;;;;6248443;28;20050;-73
2022/07/10 06:14:47;;;;;;;6.55;1.73;;;15.90;99.90;;;;;;6248420;28;20064;-73
2022/07/10 06:17:49;;;;;;;7.18;1.77;;;15.90;99.90;;;;;;6248069;28;20050;-74
2022/07/10 06:20:51;;;;;;;11.32;2.13;;;16.10;99.90;;;;;;6248396;28;20068;-73
2022/07/10 06:23:53;;;;;;;17.88;2.00;;;16.00;99.90;;;;;;6248041;28;20044;-74
2022/07/10 06:26:56;;;;;;;6.80;1.63;;;15.80;99.90;;;;;;6247334;28;20068;-74
2022/07/10 06:29:58;;;;;;;6.20;1.45;;;15.70;99.90;;;;;;6247401;28;20053;-73
2022/07/10 06:33:00;;;;;;;9.18;1.65;;;15.60;99.90;;;;;;6280033;28;20049;-74
2022/07/10 06:36:02;;;;;;;7.03;1.35;;;15.70;99.90;;;;;;6247794;28;20049;-73
2022/07/10 06:39:04;;;;;;;8.15;1.80;;;15.70;99.90;;;;;;6247696;28;20045;-73
2022/07/10 06:42:08;;;;;;;9.32;1.75;;;15.70;99.90;;;;;;6247540;28;20487;-73
2022/07/10 06:45:11;;;;;;;7.28;1.70;;;15.90;99.90;;;;;;6247605;28;20052;-74
2022/07/10 06:48:13;;;;;;;11.10;2.00;;;15.80;99.90;;;;;;6246014;28;20050;-73
2022/07/10 06:51:14;;;;;;;12.38;2.00;;;15.70;99.90;;;;;;6247415;28;20057;-73
2022/07/10 06:54:16;;;;;;;7.22;1.50;;;15.50;99.90;;;;;;6247781;28;20079;-73
2022/07/10 06:57:20;;;;;;;3.60;1.00;;;15.40;99.90;;;;;;6247559;28;20053;-74
2022/07/10 07:00:23;;;;;;;8.65;1.67;;;15.60;99.90;;;;;;6279367;28;20049;-73
2022/07/10 07:03:25;;;;;;;8.93;1.60;;;15.70;99.90;;;;;;6279415;28;20064;-73
2022/07/10 07:06:26;;;;;;;7.00;1.42;;;15.80;99.90;;;;;;6247243;28;20052;-74
2022/07/10 07:09:28;;;;;;;6.85;1.73;;;15.90;99.90;;;;;;6247688;28;20049;-73
2022/07/10 07:12:32;;;;;;;6.18;1.20;;;15.80;99.90;;;;;;6247006;28;20041;-74
2022/07/10 07:15:39;;;;;;;8.63;1.55;;;15.90;99.90;;;;;;6246950;28;20425;-73
2022/07/10 07:18:47;;;;;;;8.48;1.33;;;16.00;99.90;;;;;;6246583;28;20064;-74
2022/07/10 07:25:10;;;;;;;7.13;1.48;;;16.20;99.90;;;;;;6246922;28;20056;-74
2022/07/10 07:28:15;;;;;;;7.43;1.48;;;16.50;99.90;;;;;;6246629;28;20053;-73
2022/07/10 07:31:17;;;;;;;4.32;0.85;;;16.40;99.90;;;;;;6247145;28;20172;-74
2022/07/10 07:34:20;;;;;;;6.82;1.15;;;16.40;99.90;;;;;;6247579;28;20049;-73
2022/07/10 07:37:21;;;;;;;6.03;1.08;;;16.40;99.90;;;;;;6262409;28;20533;-73
2022/07/10 07:40:25;;;;;;;3.38;0.73;;;16.50;99.90;;;;;;6251162;28;20058;-73
2022/07/10 07:43:28;;;;;;;4.40;0.80;;;16.60;99.90;;;;;;6251861;28;20430;-73
2022/07/10 07:46:30;;;;;;;3.38;0.85;;;16.70;99.90;;;;;;6252152;28;20052;-72
2022/07/10 07:49:32;;;;;;;4.43;0.95;;;16.70;99.90;;;;;;6251698;28;20045;-73
2022/07/10 07:52:35;;;;;;;3.90;0.70;;;16.60;99.90;;;;;;6251635;28;20069;-73
2022/07/10 07:55:37;;;;;;;5.28;1.13;;;16.70;99.90;;;;;;6266995;28;20053;-74
2022/07/10 07:58:40;;;;;;;5.47;1.30;;;17.00;99.90;;;;;;6251368;28;20072;-74
2022/07/10 08:01:42;;;;;;;3.85;1.05;;;17.00;99.90;;;;;;6266811;28;20069;-74
2022/07/10 08:04:44;;;;;;;6.13;1.30;;;17.00;99.90;;;;;;6251457;28;20048;-74
2022/07/10 08:07:50;;;;;;;5.53;0.98;;;17.00;99.90;;;;;;6251190;28;20523;-74
2022/07/10 08:10:52;;;;;;;4.20;0.80;;;17.00;99.90;;;;;;6266579;28;20049;-74
2022/07/10 08:13:55;;;;;;;4.20;0.90;;;17.10;99.90;;;;;;6266845;28;20474;-74
2022/07/10 08:16:57;;;;;;;3.45;1.10;;;17.20;99.90;;;;;;6251639;28;20052;-73
2022/07/10 08:19:59;;;;;;;6.82;0.98;;;17.30;99.90;;;;;;6266488;28;20499;-73
2022/07/10 08:23:01;;;;;;;4.20;0.90;;;17.40;99.90;;;;;;6251060;28;20056;-73
2022/07/10 08:26:03;;;;;;;7.22;0.88;;;17.70;99.90;;;;;;6250997;28;20128;-73
2022/07/10 08:29:06;;;;;;;3.50;0.80;;;17.90;99.90;;;;;;6265740;28;20491;-74
2022/07/10 08:32:09;;;;;;;9.57;1.73;;;17.50;99.90;;;;;;6250940;28;20462;-73
2022/07/10 08:35:13;;;;;;;3.83;1.00;;;17.40;99.90;;;;;;6250990;28;20053;-74
2022/07/10 08:38:15;;;;;;;4.68;0.95;;;17.30;99.90;;;;;;6249364;28;20060;-73
2022/07/10 08:41:21;;;;;;;3.80;0.77;;;17.40;99.90;;;;;;6250751;28;20054;-73
2022/07/10 08:44:24;;;;;;;4.45;1.00;;;17.50;99.90;;;;;;6250628;28;20049;-73
2022/07/10 08:47:28;;;;;;;8.30;1.33;;;17.50;99.90;;;;;;6250359;28;20049;-73
2022/07/10 08:50:34;;;;;;;3.28;0.77;;;17.40;99.90;;;;;;6281817;28;20061;-73
2022/07/10 08:53:36;;;;;;;6.00;0.98;;;17.30;99.90;;;;;;6250119;28;20092;-73
2022/07/10 08:56:38;;;;;;;7.35;1.25;;;17.30;99.90;;;;;;6282492;28;20510;-73
2022/07/10 08:59:42;;;;;;;4.57;1.00;;;17.40;99.90;;;;;;6250266;28;20478;-74
2022/07/10 09:02:43;;;;;;;5.82;1.08;;;17.20;99.90;;;;;;6265640;28;20056;-73
2022/07/10 09:05:46;;;;;;;7.78;1.10;;;17.30;99.90;;;;;;6249847;28;20498;-73
2022/07/10 09:09:04;;;;;;;4.65;0.90;;;17.30;99.90;;;;;;6250206;28;20045;-73
2022/07/10 09:12:09;;;;;;;5.72;1.40;;;17.30;99.90;;;;;;6249676;28;20419;-73
2022/07/10 09:15:18;;;;;;;6.53;1.48;;;17.30;99.90;;;;;;6282214;28;20042;-73
2022/07/10 09:18:24;;;;;;;6.65;1.30;;;17.30;99.90;;;;;;6249749;28;20045;-73
2022/07/10 09:21:33;;;;;;;4.25;1.00;;;16.90;99.90;;;;;;6249580;28;20414;-73
2022/07/10 09:24:39;;;;;;;5.55;0.93;;;16.80;99.90;;;;;;6249445;28;20525;-73
2022/07/10 09:27:53;;;;;;;4.38;1.20;;;16.80;99.90;;;;;;6249126;28;20506;-73
2022/07/10 09:30:57;;;;;;;6.90;1.13;;;16.90;99.90;;;;;;6249532;28;20047;-73
2022/07/10 09:34:00;;;;;;;8.07;1.88;;;16.90;99.90;;;;;;6281363;28;20049;-73
2022/07/10 09:37:18;;;;;;;10.05;2.10;;;16.90;99.90;;;;;;6249477;28;20123;-73
2022/07/10 09:40:20;;;;;;;5.13;1.00;;;16.70;99.90;;;;;;6280932;28;20046;-73
2022/07/10 09:43:22;;;;;;;6.63;1.00;;;16.60;99.90;;;;;;6249381;28;20046;-74
2022/07/10 09:46:28;;;;;;;6.10;0.70;;;16.70;99.90;;;;;;6248937;28;20071;-73
2022/07/10 09:49:31;;;;;;;3.90;0.70;;;16.60;99.90;;;;;;6281084;28;20386;-73
2022/07/10 09:52:34;;;;;;;6.38;1.10;;;16.80;99.90;;;;;;6248780;28;20491;-73
2022/07/10 09:55:37;;;;;;;4.70;0.80;;;16.70;99.90;;;;;;6281414;28;20521;-73
2022/07/10 09:58:40;;;;;;;4.65;0.90;;;16.60;99.90;;;;;;6248848;28;20053;-73
2022/07/10 10:01:46;;;;;;;9.57;1.00;;;16.40;99.90;;;;;;6279981;28;20052;-73
2022/07/10 10:04:50;;;;;;;4.25;0.60;;;16.00;99.90;;;;;;6280553;28;20053;-73
2022/07/10 10:07:51;;;;;;;;;;;15.80;99.90;;;;;;6281245;28;20052;-73
2022/07/10 10:10:57;;;;;;;4.65;0.98;;;15.80;99.90;;;;;;6247287;28;19920;-73
2022/07/10 10:13:59;;;;;;;8.43;1.17;;;15.80;99.90;;;;;;6248518;28;20056;-73
2022/07/10 10:17:06;;;;;;;4.32;0.88;;;15.70;99.90;;;;;;6280554;28;20406;-74
2022/07/10 10:23:30;;;;;;;8.60;1.35;;;16.00;99.90;;;;;;6248154;28;20049;-74
2022/07/10 10:26:32;;;;;;;7.55;1.38;;;15.90;99.90;;;;;;6248155;28;20045;-74
2022/07/10 10:29:37;;;;;;;6.00;1.10;;;16.00;99.90;;;;;;6247659;28;20064;-74
2022/07/10 10:32:42;;;;;;;4.63;0.90;;;16.30;99.90;;;;;;6279798;28;20416;-74
2022/07/10 10:35:46;;;;;;;3.63;0.80;;;16.40;99.90;;;;;;6248242;28;20103;-74
2022/07/10 10:39:10;;;;;;;6.63;1.27;;;16.70;99.90;;;;;;6247656;28;20154;-74
2022/07/10 10:42:35;;;;;;;2.25;0.68;;;16.90;99.90;;;;;;6247579;28;20046;-74
2022/07/10 10:45:37;;;;;;;3.80;0.98;;;17.20;99.90;;;;;;6246287;28;20049;-75
2022/07/10 10:49:06;;;;;;;4.18;1.00;;;17.20;99.90;;;;;;6279226;28;20057;-74
2022/07/10 10:52:10;;;;;;;6.57;1.02;;;17.10;99.90;;;;;;6263070;28;20068;-74
2022/07/10 10:55:14;;;;;;;3.63;0.73;;;16.90;99.90;;;;;;6279753;28;20056;-74
2022/07/10 10:58:18;;;;;;;6.47;0.80;;;16.60;99.90;;;;;;6247675;28;20049;-73
2022/07/10 11:01:28;;;;;;;5.22;1.20;;;16.70;99.90;;;;;;6279364;28;20049;-74
2022/07/10 11:04:31;;;;;;;2.90;0.60;;;16.50;99.90;;;;;;6247190;28;20049;-74
2022/07/10 11:07:52;;;;;;;2.25;0.60;;;16.50;99.90;;;;;;6247177;28;20053;-74
2022/07/10 11:10:55;;;;;;;4.63;0.55;;;16.30;99.90;;;;;;6279451;28;20072;-74
2022/07/10 11:13:59;;;;;;;3.40;0.60;;;16.30;99.90;;;;;;6246628;28;20410;-74
2022/07/10 11:17:01;;;;;;;3.97;0.70;;;16.20;99.90;;;;;;6247085;28;20460;-75
2022/07/10 11:20:05;;;;;;;3.95;0.75;;;16.40;99.90;;;;;;6246920;28;20049;-73
2022/07/10 11:23:27;;;;;;;2.90;0.95;;;16.50;99.90;;;;;;6279337;28;20509;-74
2022/07/10 11:26:37;;;;;;;4.03;0.82;;;16.70;99.90;;;;;;6246650;28;20406;-74
2022/07/10 11:29:39;;;;;;;2.75;0.68;;;16.70;99.90;;;;;;6278530;28;20502;-74
2022/07/10 11:32:41;;;;;;;2.92;0.65;;;16.70;99.90;;;;;;6247083;28;20053;-73
2022/07/10 11:35:50;;;;;;;1.98;0.80;;;16.80;99.90;;;;;;6262788;28;20053;-73
2022/07/10 11:38:57;;;;;;;2.95;0.60;;;16.80;99.90;;;;;;6262400;28;20057;-74
2022/07/10 11:41:59;;;;;;;2.67;0.70;;;16.90;99.90;;;;;;6247033;28;20046;-74
2022/07/10 11:45:23;;;;;;;1.88;0.57;;;16.80;99.90;;;;;;6246654;28;20052;-74
2022/07/10 11:48:25;;;;;;;1.75;0.50;;;16.60;99.90;;;;;;6246379;28;20132;-74
2022/07/10 11:51:29;;;;;;;1.75;0.60;;;16.60;99.90;;;;;;6262142;28;20049;-74
2022/07/10 11:54:31;;;;;;;1.77;0.88;;;16.60;99.90;;;;;;6246525;28;20068;-74
2022/07/10 11:57:41;;;;;;;1.85;0.73;;;16.60;99.90;;;;;;6262180;28;20530;-74
2022/07/10 12:00:43;;;;;;;2.65;0.73;;;16.80;99.90;;;;;;6261939;28;20068;-74
2022/07/10 12:03:45;;;;;;;1.65;0.73;;;17.20;99.90;;;;;;6262158;28;20053;-74
2022/07/10 12:06:49;;;;;;;3.33;0.77;;;17.20;99.90;;;;;;6246793;28;20057;-74
2022/07/10 12:09:54;;;;;;;2.42;0.88;;;17.10;99.90;;;;;;6262058;28;20467;-73
2022/07/10 12:13:04;;;;;;;2.58;0.80;;;17.00;99.90;;;;;;6246411;28;20057;-75
2022/07/10 12:16:07;;;;;;;3.55;0.77;;;17.00;99.90;;;;;;6246221;28;20054;-74
2022/07/10 12:19:10;;;;;;;4.35;0.93;;;16.90;99.90;;;;;;6246005;28;20054;-74
2022/07/10 12:22:14;;;;;;;1.48;0.60;;;16.80;99.90;;;;;;6262172;28;20064;-74
2022/07/10 12:25:15;;;;;;;;;;;16.70;99.90;;;;;;6262620;28;20083;-74
2022/07/10 12:28:18;;;;;;;3.92;1.00;;;16.80;99.90;;;;;;6282782;28;19927;-74
2022/07/10 12:31:24;;;;;;;4.22;1.10;;;16.70;99.90;;;;;;6250594;28;20172;-75
2022/07/10 12:34:34;;;;;;;3.20;0.88;;;16.70;99.90;;;;;;6282675;28;20045;-74
2022/07/10 12:37:48;;;;;;;4.55;1.42;;;16.60;99.90;;;;;;6282641;28;20049;-74
2022/07/10 12:40:50;;;;;;;;;;;16.50;99.90;;;;;;6250979;28;20481;-73
2022/07/10 12:43:53;;;;;;;5.25;1.55;;;16.50;99.90;;;;;;6250654;28;19933;-73
2022/07/10 12:47:01;;;;;;;6.00;2.03;;;16.60;99.90;;;;;;6250558;28;20045;-74
2022/07/10 12:50:05;;;;;;;6.47;1.70;;;16.80;99.90;;;;;;6282567;28;20049;-74
2022/07/10 12:53:11;;;;;;;8.15;1.85;;;16.90;99.90;;;;;;6265849;28;20057;-74
2022/07/10 12:56:27;;;;;;;4.03;1.70;;;17.00;99.90;;;;;;6282494;28;20128;-74
2022/07/10 12:59:29;;;;;;;3.90;1.92;;;16.70;99.90;;;;;;6250262;28;20057;-75
2022/07/10 13:02:31;;;;;;;4.53;1.33;;;16.50;99.90;;;;;;6250288;28;20124;-74
2022/07/10 13:05:35;;;;;;;3.38;2.08;;;16.30;99.90;;;;;;6250187;28;20049;-74
2022/07/10 13:08:47;;;;;;;4.00;1.85;;;16.10;99.90;;;;;;6265146;28;20053;-74
2022/07/10 13:11:49;;;;;;;3.83;1.75;;;16.10;99.90;;;;;;6250117;28;20493;-74
2022/07/10 13:14:51;;;;;;;4.05;1.73;;;16.20;99.90;;;;;;6249776;28;20068;-74
2022/07/10 13:17:53;;;;;;;4.97;1.85;;;16.20;99.90;;;;;;6281538;28;20050;-74
2022/07/10 13:20:58;;;;;;;7.68;2.20;;;16.20;99.90;;;;;;6281907;28;20054;-74
2022/07/10 13:24:01;;;;;;;3.30;1.80;;;16.30;99.90;;;;;;6282078;28;20080;-74
2022/07/10 13:27:03;;;;;;;6.28;2.00;;;16.40;99.90;;;;;;6281729;28;20061;-74
2022/07/10 13:30:07;;;;;;;6.72;2.17;;;16.40;99.90;;;;;;6249149;28;20527;-74
2022/07/10 13:33:09;;;;;;;6.55;2.40;;;16.20;99.90;;;;;;6249636;28;20461;-74
2022/07/10 13:36:11;;;;;;;5.97;2.20;;;16.00;99.90;;;;;;6249281;28;20061;-75
2022/07/10 13:39:14;;;;;;;6.88;2.28;;;16.00;99.90;;;;;;6248968;28;20080;-75
2022/07/10 13:42:16;;;;;;;7.88;2.70;;;16.00;99.90;;;;;;6264800;28;20048;-74
2022/07/10 13:45:18;;;;;;;6.78;2.03;;;16.10;99.90;;;;;;6264361;28;20049;-74
2022/07/10 13:48:20;;;;;;;2.60;1.60;;;16.20;99.90;;;;;;6249149;28;20041;-74
2022/07/10 13:51:22;;;;;;;7.00;2.30;;;16.40;99.90;;;;;;6264371;28;20046;-74
2022/07/10 13:54:25;;;;;;;5.70;1.65;;;16.50;99.90;;;;;;6249022;28;20184;-74
2022/07/10 13:57:27;;;;;;;6.75;1.83;;;16.60;99.90;;;;;;6248817;28;20076;-75
2022/07/10 14:00:30;;;;;;;4.95;1.33;;;16.80;99.90;;;;;;6264204;28;20479;-75
2022/07/10 14:03:32;;;;;;;3.83;1.35;;;16.90;99.90;;;;;;6247372;28;20155;-75
2022/07/10 14:06:34;;;;;;;5.13;1.50;;;16.70;99.90;;;;;;6263796;28;20056;-74
2022/07/10 14:09:37;;;;;;;5.93;1.70;;;16.80;99.90;;;;;;6248516;28;20057;-75
2022/07/10 14:12:39;;;;;;;6.60;1.88;;;16.60;99.90;;;;;;6280834;28;20510;-75
2022/07/10 14:15:44;;;;;;;8.00;1.95;;;16.60;99.90;;;;;;6263509;28;20046;-75
2022/07/10 14:18:46;;;;;;;2.85;0.80;;;16.60;99.90;;;;;;6248091;28;20053;-75
2022/07/10 14:21:48;;;;;;;3.78;1.00;;;16.60;99.90;;;;;;6263402;28;20415;-75
2022/07/10 14:24:53;;;;;;;7.25;1.98;;;16.60;99.90;;;;;;6248035;28;20479;-75
2022/07/10 14:27:55;;;;;;;5.97;2.08;;;16.60;99.90;;;;;;6263377;28;20053;-74
2022/07/10 14:31:00;;;;;;;6.25;1.75;;;16.50;99.90;;;;;;6247956;28;20045;-75
2022/07/10 14:34:02;;;;;;;5.35;2.05;;;16.30;99.90;;;;;;6248289;28;20045;-74
2022/07/10 14:37:04;;;;;;;9.05;2.30;;;16.20;99.90;;;;;;6248200;28;20045;-73
2022/07/10 14:40:09;;;;;;;6.35;2.33;;;16.10;99.90;;;;;;6280053;28;20049;-74
2022/07/10 14:43:11;;;;;;;5.35;1.75;;;16.00;99.90;;;;;;6279735;28;20049;-74
2022/07/10 14:46:12;;;;;;;8.82;2.97;;;16.00;99.90;;;;;;6247715;28;20048;-73
2022/07/10 14:49:14;;;;;;;10.40;3.50;;;16.10;99.90;;;;;;6247117;28;20052;-74
2022/07/10 14:52:20;;;;;;;7.97;2.55;;;16.10;99.90;;;;;;6247587;28;20046;-74
2022/07/10 14:55:24;;;;;;;10.88;3.40;;;16.30;99.90;;;;;;6247763;28;20045;-74
2022/07/10 14:58:26;;;;;;;13.15;3.00;;;16.30;99.90;;;;;;6247814;28;20116;-73
2022/07/10 15:01:28;;;;;;;8.38;2.90;;;16.40;99.90;;;;;;6247641;28;20057;-74
2022/07/10 15:04:30;;;;;;;6.45;1.95;;;16.40;99.90;;;;;;6247289;28;20141;-75
2022/07/10 15:07:32;;;;;;;4.78;2.00;;;16.60;99.90;;;;;;6247190;28;20411;-74
2022/07/10 15:10:35;;;;;;;9.32;2.20;;;16.70;99.90;;;;;;6247226;28;20403;-74
2022/07/10 15:13:37;;;;;;;3.63;1.23;;;16.60;99.90;;;;;;6247197;28;20057;-75
2022/07/10 15:16:39;;;;;;;10.02;2.67;;;16.70;99.90;;;;;;6279141;28;20050;-74
2022/07/10 15:19:41;;;;;;;6.13;1.85;;;16.90;99.90;;;;;;6246696;28;20684;-75
2022/07/10 15:22:43;;;;;;;7.57;2.05;;;16.90;99.90;;;;;;6247473;28;20081;-74
2022/07/10 15:25:46;;;;;;;10.05;2.22;;;16.80;99.90;;;;;;6279154;28;20502;-74
2022/07/10 15:28:48;;;;;;;;;;;16.60;99.90;;;;;;6279320;28;20418;-74
2022/07/10 15:31:50;;;;;;;7.22;2.33;;;16.50;99.90;;;;;;6246981;28;19928;-74
2022/07/10 15:34:53;;;;;;;10.40;2.40;;;16.40;99.90;;;;;;6247073;28;20046;-74
2022/07/10 15:37:59;;;;;;;5.18;2.25;;;16.40;99.90;;;;;;6246694;28;20049;-74
2022/07/10 15:41:02;;;;;;;7.38;2.78;;;16.50;99.90;;;;;;6262478;28;20052;-74
2022/07/10 15:44:04;;;;;;;6.57;2.15;;;16.60;99.90;;;;;;6279314;28;20458;-74
2022/07/10 15:47:06;;;;;;;6.15;2.40;;;16.60;99.90;;;;;;6246830;28;20052;-74
2022/07/10 15:50:08;;;;;;;8.75;2.50;;;16.70;99.90;;;;;;6246855;28;20053;-74
2022/07/10 15:53:10;;;;;;;8.23;2.90;;;16.70;99.90;;;;;;6278680;28;20049;-74
2022/07/10 15:56:14;;;;;;;5.72;1.90;;;16.80;99.90;;;;;;6246920;28;20050;-74
2022/07/10 15:59:18;;;;;;;;;;;16.90;99.90;;;;;;6279755;28;20603;-74
2022/07/10 16:02:20;;;;;;;8.93;2.60;;;16.90;99.90;;;;;;6251829;28;19921;-75